Time;durP1;ratioP1;P1;durP2;ratioP2;P2;SDS_P1;SDS_P2;PMS_P1;PMS_P2;Temp;Humidity;BMP_temperature;BMP_pressure;BME280_temperature;BME280_humidity;BME280_pressure;Samples;Min_cycle;Max_cycle;Signal;HPM_P1;HPM_P2
2022/01/26 00:05:43;;;;;;;13.57;8.70;;;5.30;1.00;;;;;;4999028;28;20254;-80
2022/01/26 00:06:30;;;;;;;11.07;8.32;;;5.30;1.00;;;;;;4995647;28;20312;-80
2022/01/26 00:08:57;;;;;;;12.07;8.30;;;5.30;1.00;;;;;;5003011;28;20243;-81
2022/01/26 00:11:24;;;;;;;14.50;8.40;;;5.30;1.00;;;;;;5004281;28;20254;-81
2022/01/26 00:13:52;;;;;;;13.52;8.75;;;5.30;1.00;;;;;;5003318;28;20250;-80
2022/01/26 00:16:26;;;;;;;12.35;7.97;;;5.30;1.00;;;;;;5001658;28;20283;-82
2022/01/26 00:18:56;;;;;;;15.27;9.23;;;5.30;1.00;;;;;;5001479;28;20279;-81
2022/01/26 00:21:33;;;;;;;11.82;7.95;;;5.30;1.00;;;;;;5003034;28;20724;-81
2022/01/26 00:24:37;;;;;;;12.30;8.90;;;5.30;1.00;;;;;;5006985;28;20219;-80
2022/01/26 00:27:21;;;;;;;15.95;8.80;;;5.30;1.00;;;;;;4985606;28;20314;-80
2022/01/26 00:30:00;;;;;;;12.68;9.02;;;5.30;1.00;;;;;;5015078;28;20224;-79
2022/01/26 00:40:50;;;;;;;14.98;10.02;;;5.20;1.00;;;;;;5008077;28;20238;-80
2022/01/26 00:43:22;;;;;;;15.73;10.40;;;5.20;1.00;;;;;;5010585;28;20226;-79
2022/01/26 00:45:54;;;;;;;16.15;11.48;;;5.20;1.00;;;;;;5003163;28;20251;-81
2022/01/26 00:48:21;;;;;;;13.38;8.90;;;5.20;1.00;;;;;;5001319;28;20279;-81
2022/01/26 00:50:51;;;;;;;16.52;10.80;;;5.20;1.00;;;;;;5000597;28;20222;-80
2022/01/26 00:53:19;;;;;;;16.80;9.90;;;5.20;1.00;;;;;;4997993;28;20231;-81
2022/01/26 00:55:48;;;;;;;14.75;10.05;;;5.30;1.00;;;;;;4990687;28;20242;-81
2022/01/26 00:58:15;;;;;;;15.02;10.00;;;5.30;1.00;;;;;;4995238;28;20339;-81
2022/01/26 01:00:42;;;;;;;16.90;9.77;;;5.30;1.00;;;;;;4985579;28;20316;-81
2022/01/26 01:03:09;;;;;;;15.55;10.35;;;5.30;1.00;;;;;;4997052;28;20401;-80
2022/01/26 01:05:41;;;;;;;16.88;11.63;;;5.30;1.00;;;;;;4997536;28;20282;-80
2022/01/26 01:08:12;;;;;;;16.02;10.70;;;5.30;1.00;;;;;;4995650;28;20227;-80
2022/01/26 01:10:40;;;;;;;16.35;10.20;;;5.30;1.00;;;;;;4991349;28;20246;-80
2022/01/26 01:13:14;;;;;;;16.15;10.98;;;5.30;1.00;;;;;;4985756;28;20306;-80
2022/01/26 01:15:41;;;;;;;18.58;10.98;;;5.30;1.00;;;;;;4982381;28;20728;-80
2022/01/26 01:18:13;;;;;;;17.33;11.00;;;5.30;1.00;;;;;;4989297;28;20369;-82
2022/01/26 01:21:21;;;;;;;18.17;11.90;;;5.30;1.00;;;;;;4980925;28;20228;-80
2022/01/26 01:24:14;;;;;;;16.67;10.77;;;5.30;1.00;;;;;;4994518;28;20222;-81
2022/01/26 01:27:17;;;;;;;21.38;11.63;;;5.20;1.00;;;;;;4985208;28;20230;-80
2022/01/26 01:29:56;;;;;;;19.13;11.43;;;5.20;1.00;;;;;;4986737;28;20309;-81
2022/01/26 01:32:31;;;;;;;19.10;11.70;;;5.20;1.00;;;;;;4989138;28;21450;-81
2022/01/26 01:34:59;;;;;;;18.23;11.20;;;5.10;1.00;;;;;;4992869;28;20253;-82
2022/01/26 01:37:26;;;;;;;16.80;10.50;;;5.10;1.00;;;;;;4985928;28;20985;-82
2022/01/26 01:39:53;;;;;;;16.55;10.23;;;5.00;1.00;;;;;;4992837;28;20223;-82
2022/01/26 01:45:01;;;;;;;15.95;10.68;;;5.00;1.00;;;;;;4983520;28;20227;-82
2022/01/26 01:47:28;;;;;;;16.25;11.05;;;5.00;1.00;;;;;;4988678;28;20326;-82
2022/01/26 01:49:55;;;;;;;17.17;10.00;;;5.00;1.00;;;;;;4976220;28;20250;-81
2022/01/26 01:52:22;;;;;;;16.13;9.52;;;4.90;1.00;;;;;;4998352;28;20301;-81
2022/01/26 01:54:52;;;;;;;14.13;8.55;;;4.90;1.00;;;;;;4992843;28;20298;-82
2022/01/26 01:57:23;;;;;;;12.85;8.68;;;4.90;1.00;;;;;;4989798;28;20962;-81
2022/01/26 01:59:51;;;;;;;14.32;8.40;;;4.90;1.00;;;;;;4990535;28;20301;-82
2022/01/26 02:02:19;;;;;;;12.32;7.97;;;4.80;1.00;;;;;;4994388;28;20223;-82
2022/01/26 02:04:47;;;;;;;17.73;9.70;;;4.90;1.00;;;;;;4994491;28;20253;-82
2022/01/26 02:07:14;;;;;;;13.25;8.40;;;4.80;1.00;;;;;;4987560;28;20241;-80
2022/01/26 02:09:40;;;;;;;11.73;9.10;;;4.90;1.00;;;;;;4998715;28;20230;-80
2022/01/26 02:12:14;;;;;;;19.67;8.73;;;4.90;1.00;;;;;;5012957;28;20229;-81
2022/01/26 02:14:45;;;;;;;13.75;8.20;;;4.90;1.00;;;;;;4992817;28;20296;-82
2022/01/26 02:17:23;;;;;;;14.93;8.82;;;4.90;1.00;;;;;;4976041;28;20297;-82
2022/01/26 02:20:10;;;;;;;13.20;10.18;;;4.80;1.00;;;;;;4984708;28;20236;-82
2022/01/26 02:50:39;;;;;;;12.55;8.70;;;4.80;1.00;;;;;;4988911;28;21086;-82
2022/01/26 02:53:25;;;;;;;12.93;8.30;;;4.90;1.00;;;;;;4989778;28;20997;-82
2022/01/26 02:55:57;;;;;;;13.07;8.82;;;4.80;1.00;;;;;;4990790;28;20235;-82
2022/01/26 02:58:50;;;;;;;12.27;9.00;;;4.80;1.00;;;;;;4989330;28;20223;-82
2022/01/26 03:01:36;;;;;;;16.50;9.18;;;4.80;1.00;;;;;;4988693;28;20223;-82
2022/01/26 03:04:11;;;;;;;15.13;9.25;;;4.80;1.00;;;;;;4981923;28;20258;-81
2022/01/26 03:06:44;;;;;;;13.63;9.43;;;4.80;1.00;;;;;;4982658;28;20980;-82
2022/01/26 03:09:14;;;;;;;18.00;9.57;;;4.80;1.00;;;;;;4988851;28;20260;-82
2022/01/26 03:11:45;;;;;;;14.80;9.55;;;4.90;1.00;;;;;;4983239;28;20272;-82
2022/01/26 03:14:21;;;;;;;13.30;8.52;;;4.90;1.00;;;;;;4983763;28;20215;-81
2022/01/26 03:16:54;;;;;;;18.15;10.95;;;4.80;1.00;;;;;;4989636;28;20235;-80
2022/01/26 03:19:24;;;;;;;17.38;10.48;;;4.80;1.00;;;;;;4990537;28;20242;-81
2022/01/26 03:22:15;;;;;;;17.85;10.20;;;4.80;1.00;;;;;;5009261;28;20270;-81
2022/01/26 03:30:30;;;;;;;17.35;10.50;;;4.70;1.00;;;;;;4984394;28;21027;-81
2022/01/26 03:33:10;;;;;;;15.07;9.63;;;4.70;1.00;;;;;;4984777;28;22621;-81
2022/01/26 03:35:43;;;;;;;14.88;10.40;;;4.70;1.00;;;;;;4996700;28;20239;-80
2022/01/26 03:38:18;;;;;;;15.57;9.43;;;4.70;1.00;;;;;;5016266;28;20207;-81
2022/01/26 03:40:44;;;;;;;15.48;10.15;;;4.60;1.00;;;;;;5011831;28;20241;-82
2022/01/26 03:43:12;;;;;;;18.45;10.77;;;4.70;1.00;;;;;;4984118;28;20305;-81
2022/01/26 03:45:39;;;;;;;18.27;11.40;;;4.70;1.00;;;;;;4995448;28;21229;-81
2022/01/26 03:48:06;;;;;;;20.45;12.52;;;4.70;1.00;;;;;;4998847;28;20262;-82
2022/01/26 03:50:33;;;;;;;18.92;11.80;;;4.70;1.00;;;;;;4991924;28;21172;-82
2022/01/26 03:52:59;;;;;;;19.67;11.30;;;4.60;1.00;;;;;;4994258;28;20215;-82
2022/01/26 03:55:26;;;;;;;18.55;11.95;;;4.70;1.00;;;;;;4994182;28;21169;-82
2022/01/26 03:57:52;;;;;;;17.23;11.75;;;4.80;1.00;;;;;;4976175;28;20306;-82
2022/01/26 04:00:21;;;;;;;20.15;12.95;;;4.70;1.00;;;;;;4981690;28;20231;-82
2022/01/26 04:02:48;;;;;;;21.88;12.80;;;4.70;1.00;;;;;;4992318;28;20220;-82
2022/01/26 04:05:14;;;;;;;19.52;12.90;;;4.70;1.00;;;;;;4993703;28;20226;-82
2022/01/26 04:07:43;;;;;;;23.38;14.63;;;4.70;1.00;;;;;;4993018;28;20275;-83
2022/01/26 04:10:18;;;;;;;21.60;13.10;;;4.80;1.00;;;;;;4990699;28;20748;-82
2022/01/26 04:12:45;;;;;;;17.38;12.63;;;4.80;1.00;;;;;;4999023;28;21428;-82
2022/01/26 04:15:21;;;;;;;19.48;12.85;;;4.80;1.00;;;;;;4994545;28;20309;-82
2022/01/26 04:17:49;;;;;;;21.77;12.05;;;4.70;1.00;;;;;;4993321;28;20235;-82
2022/01/26 04:20:16;;;;;;;19.83;12.23;;;4.70;1.00;;;;;;4992156;28;20227;-81
2022/01/26 04:22:52;;;;;;;24.77;12.57;;;4.70;1.00;;;;;;4997675;28;20220;-82
2022/01/26 04:25:23;;;;;;;16.42;11.40;;;4.60;1.00;;;;;;4997721;28;20318;-81
2022/01/26 04:27:53;;;;;;;23.65;14.93;;;4.60;1.00;;;;;;4999813;28;21436;-82
2022/01/26 04:30:20;;;;;;;23.40;14.07;;;4.60;1.00;;;;;;5002600;28;20286;-82
2022/01/26 04:32:49;;;;;;;18.98;11.95;;;4.60;1.00;;;;;;5003770;28;20227;-82
2022/01/26 04:35:16;;;;;;;21.58;11.60;;;4.60;1.00;;;;;;5007554;28;20713;-82
2022/01/26 04:38:06;;;;;;;17.38;10.95;;;4.60;1.00;;;;;;4993533;28;20239;-81
2022/01/26 04:40:38;;;;;;;17.33;11.55;;;4.60;1.00;;;;;;4994277;28;20227;-82
2022/01/26 04:43:12;;;;;;;19.23;12.50;;;4.60;1.00;;;;;;4991740;28;20254;-81
2022/01/26 04:45:39;;;;;;;22.10;13.27;;;4.50;1.00;;;;;;4996153;28;20265;-80
2022/01/26 04:48:07;;;;;;;21.15;12.93;;;4.50;1.00;;;;;;4999006;28;20358;-81
2022/01/26 04:50:33;;;;;;;22.63;13.65;;;4.50;1.00;;;;;;5011112;28;20226;-80
2022/01/26 04:53:00;;;;;;;24.35;14.38;;;4.50;1.00;;;;;;5015417;28;20402;-80
2022/01/26 04:55:27;;;;;;;22.55;14.75;;;4.60;1.00;;;;;;5005193;28;20283;-80
2022/01/26 04:57:54;;;;;;;20.70;12.70;;;4.50;1.00;;;;;;5002487;28;20315;-80
2022/01/26 05:00:20;;;;;;;23.25;13.98;;;4.50;1.00;;;;;;4999656;28;20227;-81
2022/01/26 05:02:47;;;;;;;21.73;12.73;;;4.50;1.00;;;;;;5003382;28;20283;-80
2022/01/26 05:05:15;;;;;;;23.27;14.13;;;4.50;1.00;;;;;;4994335;28;20235;-81
2022/01/26 05:07:43;;;;;;;21.27;12.73;;;4.50;1.00;;;;;;4998310;28;20237;-80
2022/01/26 05:10:10;;;;;;;22.17;13.40;;;4.50;1.00;;;;;;4998784;28;20362;-80
2022/01/26 05:12:38;;;;;;;19.60;12.10;;;4.50;1.00;;;;;;4983292;28;20254;-81
2022/01/26 05:15:05;;;;;;;19.73;12.20;;;4.40;1.00;;;;;;4998256;28;20282;-81
2022/01/26 05:17:32;;;;;;;21.17;13.25;;;4.40;1.00;;;;;;4995610;28;20241;-82
2022/01/26 05:20:00;;;;;;;21.17;12.90;;;4.40;1.00;;;;;;4992228;28;20226;-82
2022/01/26 05:22:30;;;;;;;22.60;12.60;;;4.40;1.00;;;;;;4999992;28;20263;-83
2022/01/26 05:24:57;;;;;;;20.85;12.65;;;4.40;1.00;;;;;;4991350;28;20227;-86
2022/01/26 05:27:24;;;;;;;20.05;12.25;;;4.40;1.00;;;;;;4997268;28;20229;-86
2022/01/26 05:29:50;;;;;;;21.08;11.80;;;4.40;1.00;;;;;;4991886;28;20215;-88
2022/01/26 05:32:19;;;;;;;21.00;13.20;;;4.40;1.00;;;;;;4992937;28;20215;-84
2022/01/26 05:34:46;;;;;;;22.15;11.60;;;4.40;1.00;;;;;;4989312;28;20300;-84
2022/01/26 05:37:13;;;;;;;19.42;11.55;;;4.40;1.00;;;;;;5001707;28;20349;-84
2022/01/26 05:39:41;;;;;;;14.20;10.60;;;4.30;1.00;;;;;;4995104;28;20330;-79
2022/01/26 05:42:08;;;;;;;21.02;12.32;;;4.20;1.00;;;;;;4984705;28;20706;-80
2022/01/26 05:44:35;;;;;;;21.00;10.90;;;4.10;1.00;;;;;;4985440;28;20283;-80
2022/01/26 05:47:02;;;;;;;14.77;10.20;;;4.20;1.00;;;;;;5004841;28;20212;-80
2022/01/26 05:49:29;;;;;;;16.70;10.35;;;4.10;1.00;;;;;;4997260;28;20231;-83
2022/01/26 05:51:56;;;;;;;14.85;9.02;;;4.10;1.00;;;;;;4996258;28;20334;-79
2022/01/26 05:54:23;;;;;;;13.52;8.95;;;4.10;1.00;;;;;;4992160;28;20290;-81
2022/01/26 05:56:51;;;;;;;13.85;9.52;;;4.00;1.00;;;;;;4986914;28;20429;-80
2022/01/26 05:59:20;;;;;;;15.18;9.35;;;4.00;1.00;;;;;;4974479;28;21039;-83
2022/01/26 06:01:48;;;;;;;12.63;8.70;;;4.00;1.00;;;;;;4995296;28;20277;-80
2022/01/26 06:04:15;;;;;;;17.77;10.30;;;3.90;1.00;;;;;;4996734;28;20228;-80
2022/01/26 06:06:42;;;;;;;15.00;9.63;;;3.90;1.00;;;;;;4992283;28;20218;-80
2022/01/26 06:09:09;;;;;;;17.40;10.13;;;3.90;1.00;;;;;;4996550;28;20251;-79
2022/01/26 06:11:35;;;;;;;16.00;9.52;;;3.90;1.00;;;;;;4996035;28;20314;-84
2022/01/26 06:14:03;;;;;;;18.80;10.70;;;3.90;1.00;;;;;;5004348;28;20226;-85
2022/01/26 06:16:30;;;;;;;14.50;9.85;;;3.90;1.00;;;;;;5000826;28;20310;-82
2022/01/26 06:18:57;;;;;;;18.10;10.45;;;3.90;1.00;;;;;;5016255;28;20229;-81
2022/01/26 06:21:23;;;;;;;15.35;10.25;;;3.90;1.00;;;;;;4996709;28;20223;-82
2022/01/26 06:23:51;;;;;;;19.33;10.82;;;3.90;1.00;;;;;;5013246;28;20249;-86
2022/01/26 06:26:18;;;;;;;20.40;11.40;;;3.80;1.00;;;;;;4992618;28;20359;-80
2022/01/26 06:28:45;;;;;;;17.02;9.75;;;3.90;1.00;;;;;;4996011;28;20281;-80
2022/01/26 06:31:15;;;;;;;17.60;10.57;;;3.90;1.00;;;;;;4988633;28;20721;-80
2022/01/26 06:33:43;;;;;;;19.52;10.35;;;3.90;1.00;;;;;;5000785;28;20239;-81
2022/01/26 06:36:12;;;;;;;20.48;10.60;;;3.90;1.00;;;;;;5003409;28;21119;-77
2022/01/26 06:38:40;;;;;;;18.13;9.75;;;3.90;1.00;;;;;;4991930;28;20231;-80
2022/01/26 06:41:07;;;;;;;19.52;10.85;;;3.90;1.00;;;;;;5002381;28;20283;-80
2022/01/26 06:43:46;;;;;;;18.52;11.40;;;3.90;1.00;;;;;;4979673;28;20227;-82
2022/01/26 06:46:22;;;;;;;21.33;11.52;;;3.90;1.00;;;;;;4983045;28;24788;-85
2022/01/26 06:51:53;;;;;;;25.60;12.93;;;3.90;1.00;;;;;;4970260;28;20239;-87
2022/01/26 06:54:21;;;;;;;20.40;12.57;;;3.90;1.00;;;;;;4983165;28;20227;-86
2022/01/26 06:56:48;;;;;;;24.17;12.52;;;3.90;1.00;;;;;;4999926;28;20233;-87
2022/01/26 06:59:15;;;;;;;23.05;13.70;;;3.80;1.00;;;;;;5004417;28;20269;-87
2022/01/26 07:01:45;;;;;;;21.92;12.52;;;3.80;1.00;;;;;;4981022;28;20224;-88
2022/01/26 07:09:59;;;;;;;28.55;13.75;;;3.80;1.00;;;;;;4966540;28;21265;-87
2022/01/26 07:35:50;;;;;;;25.25;17.13;;;3.70;1.00;;;;;;4882509;28;20235;-86
2022/01/26 07:42:14;;;;;;;28.30;14.30;;;3.80;1.00;;;;;;4865844;29;20234;-86
2022/01/26 07:55:20;;;;;;;26.30;13.20;;;3.80;1.00;;;;;;5165045;22;20755;-81
2022/01/26 07:57:51;;;;;;;28.50;16.48;;;3.80;1.00;;;;;;4982231;28;20243;-81
2022/01/26 08:00:32;;;;;;;26.42;14.20;;;3.80;1.00;;;;;;4986454;28;20239;-83
2022/01/26 08:02:58;;;;;;;28.38;16.40;;;3.80;1.00;;;;;;4969297;28;20232;-81
2022/01/26 08:05:26;;;;;;;22.92;12.73;;;3.80;1.00;;;;;;4983343;28;20362;-80
2022/01/26 08:07:53;;;;;;;22.17;13.70;;;3.90;1.00;;;;;;4985138;28;20220;-80
2022/01/26 08:10:21;;;;;;;23.88;12.95;;;3.90;1.00;;;;;;4995089;28;20257;-80
2022/01/26 08:12:49;;;;;;;30.25;14.82;;;3.90;1.00;;;;;;5001863;28;20226;-81
2022/01/26 08:15:16;;;;;;;31.38;15.65;;;3.80;1.00;;;;;;4984569;28;20216;-81
2022/01/26 08:17:43;;;;;;;27.33;15.13;;;3.80;1.00;;;;;;4996979;28;20224;-82
2022/01/26 08:20:10;;;;;;;24.67;15.02;;;3.80;1.00;;;;;;4982585;28;20224;-81
2022/01/26 08:22:39;;;;;;;25.95;12.65;;;3.80;1.00;;;;;;4987834;28;20258;-80
2022/01/26 08:25:08;;;;;;;26.48;13.80;;;3.80;1.00;;;;;;4984524;28;21258;-80
2022/01/26 08:27:40;;;;;;;27.35;15.68;;;3.80;1.00;;;;;;4986803;28;20228;-82
2022/01/26 08:30:11;;;;;;;29.38;14.88;;;3.80;1.00;;;;;;4969726;28;20228;-81
2022/01/26 08:32:39;;;;;;;27.77;14.82;;;3.80;1.00;;;;;;4991447;28;20331;-80
2022/01/26 08:35:07;;;;;;;22.80;14.25;;;3.90;1.00;;;;;;4983322;28;20315;-81
2022/01/26 08:37:34;;;;;;;21.70;13.82;;;3.90;1.00;;;;;;4969466;28;20772;-84
2022/01/26 08:40:01;;;;;;;28.77;15.00;;;3.90;1.00;;;;;;4961656;28;20302;-86
2022/01/26 08:42:28;;;;;;;24.00;13.70;;;3.90;1.00;;;;;;4983893;28;20290;-82
2022/01/26 08:44:56;;;;;;;26.45;14.93;;;4.00;1.00;;;;;;4964597;28;20255;-83
2022/01/26 08:47:24;;;;;;;23.13;14.98;;;3.90;1.00;;;;;;4984571;28;20220;-81
2022/01/26 08:49:51;;;;;;;24.50;14.35;;;3.90;1.00;;;;;;4981588;28;20232;-82
2022/01/26 08:52:18;;;;;;;22.50;13.23;;;3.90;1.00;;;;;;4987278;28;20282;-84
2022/01/26 08:54:44;;;;;;;26.88;15.60;;;4.00;1.00;;;;;;4995279;28;20845;-81
2022/01/26 08:57:11;;;;;;;21.38;13.15;;;4.00;1.00;;;;;;4966237;28;20482;-82
2022/01/26 08:59:40;;;;;;;25.05;13.40;;;4.00;1.00;;;;;;4964791;28;20238;-85
2022/01/26 09:02:09;;;;;;;23.30;13.07;;;4.00;1.00;;;;;;4986409;28;20251;-84
2022/01/26 09:04:36;;;;;;;23.65;15.23;;;4.00;1.00;;;;;;4976701;28;20246;-85
2022/01/26 09:07:04;;;;;;;21.95;13.75;;;4.10;1.00;;;;;;4982345;28;20729;-85
2022/01/26 09:09:49;;;;;;;22.67;13.50;;;4.10;1.00;;;;;;4978417;28;20292;-82
2022/01/26 09:12:18;;;;;;;25.27;13.93;;;4.10;1.00;;;;;;4979465;28;20446;-82
2022/01/26 09:14:47;;;;;;;21.58;12.32;;;4.10;1.00;;;;;;4976755;28;20231;-82
2022/01/26 09:17:16;;;;;;;24.98;13.02;;;4.10;1.00;;;;;;4984512;28;20290;-79
2022/01/26 09:19:48;;;;;;;22.70;13.02;;;4.10;1.00;;;;;;4982934;28;20227;-78
2022/01/26 09:22:19;;;;;;;22.88;13.80;;;4.20;1.00;;;;;;4983789;28;20325;-80
2022/01/26 09:24:46;;;;;;;19.05;13.80;;;4.20;1.00;;;;;;4975602;28;20283;-80
2022/01/26 09:27:17;;;;;;;19.20;11.98;;;4.20;1.00;;;;;;4977646;28;20243;-81
2022/01/26 09:29:49;;;;;;;20.85;12.60;;;4.20;1.00;;;;;;4984367;28;20227;-79
2022/01/26 09:32:18;;;;;;;19.92;12.52;;;4.20;1.00;;;;;;4979551;28;20231;-79
2022/01/26 09:34:45;;;;;;;21.05;12.95;;;4.20;1.00;;;;;;4967579;28;20335;-84
2022/01/26 09:37:13;;;;;;;24.88;12.70;;;4.20;1.00;;;;;;4972093;28;20468;-86
2022/01/26 09:39:43;;;;;;;23.92;13.27;;;4.20;1.00;;;;;;4988482;28;20287;-83
2022/01/26 09:42:11;;;;;;;18.75;11.63;;;4.20;1.00;;;;;;4982281;28;20231;-84
2022/01/26 09:44:39;;;;;;;18.33;11.85;;;4.20;1.00;;;;;;4988493;28;20256;-81
2022/01/26 09:47:07;;;;;;;17.00;12.68;;;4.10;1.00;;;;;;4994846;28;20224;-84
2022/01/26 09:49:36;;;;;;;18.05;11.10;;;4.20;1.00;;;;;;4991938;28;20215;-82
2022/01/26 09:52:07;;;;;;;16.02;10.18;;;4.20;1.00;;;;;;4973013;28;20232;-81
2022/01/26 09:54:34;;;;;;;14.45;10.55;;;4.20;1.00;;;;;;4968231;28;20244;-81
2022/01/26 09:57:03;;;;;;;18.15;10.38;;;4.20;1.00;;;;;;4981531;28;21198;-82
2022/01/26 09:59:32;;;;;;;14.35;10.05;;;4.20;1.00;;;;;;4984192;28;20377;-83
2022/01/26 10:02:08;;;;;;;15.55;10.32;;;4.40;1.00;;;;;;4989142;28;20330;-82
2022/01/26 10:04:40;;;;;;;15.88;10.98;;;4.30;1.00;;;;;;4968496;28;20761;-81
2022/01/26 10:07:15;;;;;;;18.63;9.77;;;4.20;1.00;;;;;;4997097;28;20429;-80
2022/01/26 10:10:01;;;;;;;17.05;10.55;;;4.20;1.00;;;;;;4999319;28;20241;-80
2022/01/26 10:15:28;;;;;;;15.38;10.05;;;4.20;1.00;;;;;;4988448;28;20223;-82
2022/01/26 10:18:10;;;;;;;17.25;10.48;;;4.20;1.00;;;;;;4992206;28;20764;-82
2022/01/26 10:20:50;;;;;;;15.27;9.80;;;4.20;1.00;;;;;;4991161;28;20303;-83
2022/01/26 10:23:19;;;;;;;14.75;9.68;;;4.20;1.00;;;;;;4991421;28;20227;-83
2022/01/26 10:26:03;;;;;;;15.30;10.00;;;4.20;1.00;;;;;;4968916;28;20258;-82
2022/01/26 10:28:42;;;;;;;16.45;9.95;;;4.10;1.00;;;;;;4981784;28;20352;-82
2022/01/26 10:31:14;;;;;;;13.55;8.73;;;4.10;1.00;;;;;;4987585;28;20226;-85
2022/01/26 10:33:41;;;;;;;24.38;13.48;;;4.10;1.00;;;;;;4987801;28;20255;-83
2022/01/26 10:36:10;;;;;;;20.00;11.93;;;4.10;1.00;;;;;;4988080;28;20266;-84
2022/01/26 10:38:37;;;;;;;18.55;11.10;;;4.10;1.00;;;;;;4976133;28;20231;-85
2022/01/26 10:41:20;;;;;;;16.25;9.65;;;4.20;1.00;;;;;;4987079;28;20232;-84
2022/01/26 10:43:49;;;;;;;13.02;8.75;;;4.20;1.00;;;;;;4988276;28;21128;-84
2022/01/26 10:46:27;;;;;;;13.55;9.00;;;4.20;1.00;;;;;;4969091;28;20219;-83
2022/01/26 10:49:07;;;;;;;12.23;7.45;;;4.20;1.00;;;;;;4967293;28;20235;-85
2022/01/26 10:51:52;;;;;;;13.50;7.85;;;4.30;1.00;;;;;;4974175;28;20356;-83
2022/01/26 10:54:34;;;;;;;11.45;8.02;;;4.50;1.00;;;;;;4981220;28;20231;-85
2022/01/26 10:57:02;;;;;;;13.02;8.05;;;4.60;1.00;;;;;;4989870;28;20674;-85
2022/01/26 10:59:29;;;;;;;12.38;8.48;;;4.60;1.00;;;;;;4981347;28;20784;-85
2022/01/26 11:02:08;;;;;;;10.90;6.60;;;4.60;1.00;;;;;;4984946;28;20228;-84
2022/01/26 11:04:41;;;;;;;10.48;7.30;;;4.50;1.00;;;;;;4970732;28;20231;-85
2022/01/26 11:07:29;;;;;;;10.88;7.70;;;4.40;1.00;;;;;;4971998;28;20290;-87
2022/01/26 11:10:01;;;;;;;11.00;6.30;;;4.30;1.00;;;;;;4967914;28;20295;-87
2022/01/26 11:12:37;;;;;;;9.93;6.25;;;4.30;1.00;;;;;;4970318;28;20232;-86
2022/01/26 11:15:17;;;;;;;9.52;6.53;;;4.40;1.00;;;;;;4977359;28;20238;-89
2022/01/26 11:18:02;;;;;;;11.43;7.15;;;4.30;1.00;;;;;;4970140;28;21463;-88
2022/01/26 11:20:31;;;;;;;9.50;5.72;;;4.30;1.00;;;;;;4976319;28;20559;-87
2022/01/26 11:23:07;;;;;;;10.65;6.50;;;4.30;1.00;;;;;;4972050;28;20275;-88
2022/01/26 11:26:01;;;;;;;10.60;7.38;;;4.30;1.00;;;;;;4967497;28;20290;-85
2022/01/26 11:29:17;;;;;;;13.35;7.65;;;4.30;1.00;;;;;;4979302;28;20267;-85
2022/01/26 11:31:57;;;;;;;10.52;7.25;;;4.40;1.00;;;;;;4968882;28;20224;-85
2022/01/26 11:37:59;;;;;;;7.97;5.28;;;4.60;1.00;;;;;;4997518;28;20219;-85
2022/01/26 11:46:16;;;;;;;12.15;5.75;;;4.40;1.00;;;;;;4989347;28;20322;-85
2022/01/26 11:48:47;;;;;;;8.68;5.88;;;4.40;1.00;;;;;;4987931;28;20223;-87
2022/01/26 11:51:14;;;;;;;9.65;5.95;;;4.30;1.00;;;;;;4981547;28;20219;-87
2022/01/26 11:53:42;;;;;;;11.55;6.25;;;4.10;1.00;;;;;;4975835;28;20251;-87
2022/01/26 11:56:19;;;;;;;9.77;6.32;;;4.00;1.00;;;;;;4983160;28;20235;-88
2022/01/26 11:58:52;;;;;;;11.02;7.80;;;4.00;1.00;;;;;;4986341;28;20436;-87
2022/01/26 12:01:23;;;;;;;9.60;6.30;;;3.90;1.00;;;;;;4986023;28;20627;-87
2022/01/26 12:03:59;;;;;;;12.32;8.88;;;3.90;1.00;;;;;;4984288;28;20224;-91
2022/01/26 12:06:28;;;;;;;13.77;7.75;;;3.80;1.00;;;;;;4990684;28;20257;-87
2022/01/26 12:08:59;;;;;;;10.90;7.78;;;3.80;1.00;;;;;;4977168;28;20219;-89
2022/01/26 12:11:32;;;;;;;11.18;8.32;;;3.80;1.00;;;;;;4973801;28;20250;-89
2022/01/26 12:14:00;;;;;;;11.40;7.25;;;3.80;1.00;;;;;;4993061;28;20231;-88
2022/01/26 12:16:35;;;;;;;13.82;7.97;;;3.80;1.00;;;;;;4983360;28;20239;-84
2022/01/26 12:19:26;;;;;;;13.35;8.40;;;3.80;1.00;;;;;;4963780;28;20460;-84
2022/01/26 12:35:58;;;;;;;14.50;8.70;;;3.50;1.00;;;;;;4995986;28;20223;-80
2022/01/26 12:38:32;;;;;;;13.45;7.85;;;3.50;1.00;;;;;;4988161;28;20227;-83
2022/01/26 12:41:25;;;;;;;14.57;8.13;;;3.50;1.00;;;;;;4981679;28;20250;-83
2022/01/26 12:43:55;;;;;;;12.82;7.95;;;3.50;1.00;;;;;;4985475;28;20215;-81
2022/01/26 12:46:25;;;;;;;12.40;6.85;;;3.50;1.00;;;;;;4987121;28;20227;-84
2022/01/26 12:48:56;;;;;;;12.35;6.65;;;3.50;1.00;;;;;;4970082;28;20223;-83
2022/01/26 12:51:27;;;;;;;11.40;7.05;;;3.50;1.00;;;;;;4966990;28;20231;-80
2022/01/26 12:53:56;;;;;;;11.27;7.20;;;3.50;1.00;;;;;;4995636;28;20309;-79
2022/01/26 12:56:27;;;;;;;11.13;6.50;;;3.50;1.00;;;;;;4997997;28;20220;-78
2022/01/26 12:59:02;;;;;;;12.15;6.32;;;3.60;1.00;;;;;;4988829;28;20231;-80
2022/01/26 13:01:30;;;;;;;14.73;6.82;;;3.60;1.00;;;;;;4991282;28;20215;-82
2022/01/26 13:03:59;;;;;;;11.52;6.68;;;3.60;1.00;;;;;;4987329;28;20220;-81
2022/01/26 13:06:28;;;;;;;10.93;7.13;;;3.60;1.00;;;;;;4988908;28;20322;-84
2022/01/26 13:08:56;;;;;;;11.32;6.72;;;3.60;1.00;;;;;;4983490;28;20296;-83
2022/01/26 13:11:25;;;;;;;11.77;5.97;;;3.60;1.00;;;;;;4969318;28;20259;-83
2022/01/26 13:14:10;;;;;;;12.98;6.90;;;3.50;1.00;;;;;;4990058;28;20279;-82
2022/01/26 13:16:39;;;;;;;11.38;5.68;;;3.50;1.00;;;;;;4988110;28;20282;-81
2022/01/26 13:19:32;;;;;;;11.57;6.63;;;3.50;1.00;;;;;;4986547;28;20239;-82
2022/01/26 13:28:35;;;;;;;14.20;6.40;;;3.40;1.00;;;;;;4960589;28;20313;-84
2022/01/26 13:31:50;;;;;;;11.27;6.15;;;3.40;1.00;;;;;;4948833;28;20242;-82
2022/01/26 13:34:57;;;;;;;13.40;8.45;;;3.40;1.00;;;;;;4986443;28;21581;-84
2022/01/26 13:37:37;;;;;;;17.05;6.95;;;3.40;1.00;;;;;;4977212;28;20402;-84
2022/01/26 13:49:32;;;;;;;15.93;9.27;;;3.30;1.00;;;;;;5097949;27;20550;-83
2022/01/26 13:52:16;;;;;;;21.02;11.50;;;3.30;1.00;;;;;;5080201;27;20234;-78
2022/01/26 13:57:47;;;;;;;19.80;11.35;;;3.30;1.00;;;;;;5056354;27;20224;-78
2022/01/26 14:00:19;;;;;;;20.58;10.10;;;3.20;1.00;;;;;;5060738;27;20242;-83
2022/01/26 14:02:48;;;;;;;23.33;12.65;;;3.20;1.00;;;;;;5078371;27;20227;-84
2022/01/26 14:05:17;;;;;;;22.83;12.77;;;3.30;1.00;;;;;;5078022;27;20236;-82
2022/01/26 14:07:43;;;;;;;20.95;11.18;;;3.30;1.00;;;;;;5069473;28;20278;-82
2022/01/26 14:10:11;;;;;;;23.27;11.15;;;3.30;1.00;;;;;;5072846;27;20318;-83
2022/01/26 14:12:41;;;;;;;23.08;11.98;;;3.30;1.00;;;;;;5080405;27;20213;-83
2022/01/26 14:15:09;;;;;;;22.75;10.85;;;3.30;1.00;;;;;;5081922;27;20360;-81
2022/01/26 14:17:54;;;;;;;22.13;10.85;;;3.30;1.00;;;;;;5089244;27;20236;-82
2022/01/26 14:20:42;;;;;;;19.30;10.02;;;3.20;1.00;;;;;;5096792;27;20268;-84
2022/01/26 14:23:42;;;;;;;23.25;11.30;;;3.20;1.00;;;;;;5094758;27;20220;-86
2022/01/26 14:26:11;;;;;;;25.55;11.43;;;3.30;1.00;;;;;;5082268;27;20275;-80
2022/01/26 14:28:38;;;;;;;25.40;11.98;;;3.20;1.00;;;;;;5074020;27;20259;-80
2022/01/26 14:31:25;;;;;;;23.67;12.70;;;3.20;1.00;;;;;;5071235;27;20229;-81
2022/01/26 14:34:34;;;;;;;22.65;11.13;;;3.30;1.00;;;;;;5074901;27;20296;-80
2022/01/26 14:51:01;;;;;;;20.63;10.30;;;3.30;1.00;;;;;;5030891;27;20234;-81
2022/01/26 14:54:07;;;;;;;19.70;10.88;;;3.30;1.00;;;;;;5073359;27;20233;-82
2022/01/26 15:30:04;;;;;;;32.58;16.02;;;3.00;1.00;;;;;;5075747;27;20233;-81
2022/01/26 15:35:41;;;;;;;29.50;15.43;;;3.00;1.00;;;;;;5074615;27;20230;-81
2022/01/26 15:41:13;;;;;;;28.80;14.75;;;2.90;1.00;;;;;;5071460;28;20209;-82
2022/01/26 15:43:54;;;;;;;29.25;13.60;;;2.90;1.00;;;;;;5074511;27;20213;-80
2022/01/26 15:52:04;;;;;;;29.60;14.38;;;2.90;1.00;;;;;;5065338;27;20236;-82
2022/01/26 15:57:43;;;;;;;31.33;13.68;;;2.90;1.00;;;;;;5063730;27;20233;-82
2022/01/26 16:08:36;;;;;;;34.70;17.05;;;3.00;1.00;;;;;;5082096;27;20254;-82
2022/01/26 16:16:55;;;;;;;35.33;17.13;;;3.00;1.00;;;;;;5089975;27;20259;-82
2022/01/26 16:19:47;;;;;;;38.63;18.70;;;3.00;1.00;;;;;;5088601;27;20268;-83
2022/01/26 16:35:05;;;;;;;42.85;19.42;;;3.00;1.00;;;;;;5070324;27;20233;-82
2022/01/26 16:39:25;;;;;;;43.85;22.85;;;3.20;1.00;;;;;;5088326;27;20221;-83
2022/01/26 16:53:39;;;;;;;49.03;24.73;;;3.10;1.00;;;;;;5083336;27;20205;-82
2022/01/26 18:06:15;;;;;;;76.97;36.95;;;3.10;1.00;;;;;;5144080;27;20312;-80
2022/01/26 18:15:33;;;;;;;77.40;38.83;;;3.10;1.00;;;;;;5159717;27;20242;-81
2022/01/26 18:32:11;;;;;;;82.10;38.03;;;3.30;1.00;;;;;;5093375;27;20231;-81
2022/01/26 18:40:53;;;;;;;83.07;40.20;;;3.30;1.00;;;;;;5124839;27;20310;-80
2022/01/26 18:46:48;;;;;;;78.93;37.13;;;3.30;1.00;;;;;;5105063;27;21194;-80
2022/01/26 18:49:23;;;;;;;85.85;38.28;;;3.30;1.00;;;;;;5101369;27;20227;-84
2022/01/26 18:51:53;;;;;;;77.38;37.10;;;3.30;1.00;;;;;;5105095;27;20274;-85
2022/01/26 18:54:40;;;;;;;88.82;39.25;;;3.30;1.00;;;;;;5107639;27;20857;-84
2022/01/26 18:57:15;;;;;;;75.50;36.90;;;3.30;1.00;;;;;;5101139;27;20375;-85
2022/01/26 18:59:49;;;;;;;76.82;36.35;;;3.30;1.00;;;;;;5107277;27;20356;-86